Time;durP1;ratioP1;P1;durP2;ratioP2;P2;SDS_P1;SDS_P2;PMS_P1;PMS_P2;Temp;Humidity;BMP_temperature;BMP_pressure;BME280_temperature;BME280_humidity;BME280_pressure;Samples;Min_cycle;Max_cycle;Signal;HPM_P1;HPM_P2
2024/03/06 00:02:15;;;;;;;1138.27;999.90;;;6.10;99.90;;;;;;5011728;28;20457;-67
2024/03/06 00:04:43;;;;;;;1156.90;999.90;;;6.10;99.90;;;;;;5004540;28;20459;-67
2024/03/06 00:07:10;;;;;;;1146.87;999.90;;;6.10;99.90;;;;;;5010637;28;20456;-67
2024/03/06 00:09:37;;;;;;;1123.87;999.90;;;6.10;99.90;;;;;;5016073;28;20456;-67
2024/03/06 00:12:06;;;;;;;1123.37;999.90;;;6.00;99.90;;;;;;5015954;28;20517;-67
2024/03/06 00:14:33;;;;;;;1117.43;995.40;;;6.00;99.90;;;;;;5014983;28;20453;-66
2024/03/06 00:17:00;;;;;;;1118.13;995.50;;;5.90;99.90;;;;;;5016118;28;20449;-67
2024/03/06 00:19:26;;;;;;;1119.50;997.60;;;6.00;99.90;;;;;;5015934;28;20476;-67
2024/03/06 00:21:55;;;;;;;1132.00;999.90;;;6.00;99.90;;;;;;5008013;28;20452;-67
2024/03/06 00:24:22;;;;;;;1144.43;999.90;;;5.90;99.90;;;;;;5015467;28;20483;-67
2024/03/06 00:26:49;;;;;;;1144.03;999.90;;;5.90;99.90;;;;;;5012528;28;20457;-67
2024/03/06 00:29:16;;;;;;;1145.27;999.90;;;5.90;99.90;;;;;;4995793;28;20449;-67
2024/03/06 00:31:44;;;;;;;1139.93;999.90;;;6.00;99.90;;;;;;5012123;28;20484;-67
2024/03/06 00:34:11;;;;;;;1113.43;990.23;;;6.10;99.90;;;;;;4995786;28;20529;-67
2024/03/06 00:36:37;;;;;;;1136.80;999.90;;;6.00;99.90;;;;;;5005133;28;20964;-67
2024/03/06 00:39:07;;;;;;;1134.10;999.90;;;6.00;99.90;;;;;;5002099;28;20457;-67
2024/03/06 00:41:34;;;;;;;1149.53;999.90;;;5.90;99.90;;;;;;4996625;28;20458;-67
2024/03/06 00:44:01;;;;;;;1151.70;999.90;;;6.00;99.90;;;;;;5010295;28;20561;-67
2024/03/06 00:46:28;;;;;;;1162.77;999.90;;;6.00;99.90;;;;;;4995226;28;20972;-67
2024/03/06 00:48:55;;;;;;;1155.83;999.90;;;6.00;99.90;;;;;;4995552;28;20945;-67
2024/03/06 00:51:22;;;;;;;1158.77;999.90;;;6.00;99.90;;;;;;4996272;28;20484;-67
2024/03/06 00:53:49;;;;;;;1147.37;999.90;;;6.10;99.90;;;;;;5006576;28;20567;-67
2024/03/06 00:56:17;;;;;;;1144.43;999.90;;;6.00;99.90;;;;;;5014833;28;20548;-66
2024/03/06 00:58:44;;;;;;;1130.50;999.90;;;6.00;99.90;;;;;;5015043;28;20457;-67
2024/03/06 01:01:11;;;;;;;1145.17;999.90;;;6.00;99.90;;;;;;5015089;28;20861;-67
2024/03/06 01:03:39;;;;;;;1140.13;999.90;;;6.10;99.90;;;;;;5013342;28;20500;-67
2024/03/06 01:06:06;;;;;;;1153.53;999.90;;;6.10;99.90;;;;;;5008281;28;20460;-67
2024/03/06 01:08:32;;;;;;;1186.40;999.90;;;6.20;99.90;;;;;;5006916;28;20541;-67
2024/03/06 01:10:59;;;;;;;1159.13;999.90;;;6.20;99.90;;;;;;5014576;28;20453;-67
2024/03/06 01:13:27;;;;;;;1157.73;999.90;;;6.20;99.90;;;;;;4998698;28;20485;-67
2024/03/06 01:15:55;;;;;;;1167.40;999.90;;;6.20;99.90;;;;;;4998257;28;20446;-66
2024/03/06 01:18:21;;;;;;;1168.97;999.90;;;6.20;99.90;;;;;;5014857;28;20491;-67
2024/03/06 01:20:48;;;;;;;1159.30;999.90;;;6.20;99.90;;;;;;4995734;28;20481;-67
2024/03/06 01:23:16;;;;;;;1159.53;999.90;;;6.20;99.90;;;;;;4995976;28;20478;-67
2024/03/06 01:25:43;;;;;;;1146.20;999.90;;;6.20;99.90;;;;;;5013431;28;20531;-67
2024/03/06 01:28:10;;;;;;;1136.07;999.90;;;6.20;99.90;;;;;;5014644;28;20460;-67
2024/03/06 01:30:38;;;;;;;1144.50;999.90;;;6.20;99.90;;;;;;5013136;28;20460;-67
2024/03/06 01:33:06;;;;;;;1127.00;999.90;;;6.20;99.90;;;;;;5008090;28;20512;-67
2024/03/06 01:35:33;;;;;;;1131.50;999.90;;;6.20;99.90;;;;;;5013929;28;20949;-67
2024/03/06 01:38:01;;;;;;;1138.67;999.90;;;6.20;99.90;;;;;;5014033;28;20467;-67
2024/03/06 01:40:28;;;;;;;1141.07;999.90;;;6.10;99.90;;;;;;4997310;28;20528;-66
2024/03/06 01:42:56;;;;;;;1145.23;999.90;;;6.00;99.90;;;;;;4994411;28;20528;-67
2024/03/06 01:45:22;;;;;;;1143.93;999.90;;;5.90;99.90;;;;;;5009985;28;20452;-67
2024/03/06 01:47:51;;;;;;;1162.43;999.90;;;5.80;99.90;;;;;;4994863;28;20462;-67
2024/03/06 01:50:19;;;;;;;1176.33;999.90;;;5.80;99.90;;;;;;5009198;28;20968;-67
2024/03/06 01:52:47;;;;;;;1186.80;999.90;;;5.70;99.90;;;;;;5013670;28;20479;-67
2024/03/06 01:55:15;;;;;;;1179.27;999.90;;;5.80;99.90;;;;;;5013841;28;20848;-66
2024/03/06 01:57:42;;;;;;;1177.23;999.90;;;5.70;99.90;;;;;;5005772;28;20534;-67
2024/03/06 02:00:13;;;;;;;1185.30;999.90;;;5.70;99.90;;;;;;5014223;28;20479;-66
2024/03/06 02:02:42;;;;;;;1174.07;999.90;;;5.70;99.90;;;;;;5014021;28;20476;-67
2024/03/06 02:05:10;;;;;;;1164.10;999.90;;;5.60;99.90;;;;;;5013702;28;20452;-67
2024/03/06 02:07:40;;;;;;;1176.10;999.90;;;5.50;99.90;;;;;;5014079;28;20453;-66
2024/03/06 02:10:09;;;;;;;1193.03;999.90;;;5.40;99.90;;;;;;5013844;28;20808;-67
2024/03/06 02:12:36;;;;;;;1221.50;999.90;;;5.30;99.90;;;;;;5013419;28;20546;-66
2024/03/06 02:15:03;;;;;;;1196.13;999.90;;;5.20;99.90;;;;;;5008552;28;20454;-67
2024/03/06 02:17:30;;;;;;;1232.37;999.90;;;5.20;99.90;;;;;;4993965;28;20504;-66
2024/03/06 02:19:58;;;;;;;1263.20;999.90;;;5.20;99.90;;;;;;5006050;28;20753;-67
2024/03/06 02:22:26;;;;;;;1271.90;999.90;;;5.30;99.90;;;;;;5013470;28;20453;-67
2024/03/06 02:24:53;;;;;;;1241.87;999.90;;;5.20;99.90;;;;;;5005162;28;20457;-67
2024/03/06 02:27:20;;;;;;;1262.50;999.90;;;5.20;99.90;;;;;;5012653;28;20453;-67
2024/03/06 02:29:47;;;;;;;1269.03;999.90;;;5.20;99.90;;;;;;5013344;28;20457;-67
2024/03/06 02:32:14;;;;;;;1199.83;999.90;;;5.20;99.90;;;;;;4998782;28;20485;-67
2024/03/06 02:34:41;;;;;;;1197.47;999.90;;;5.20;99.90;;;;;;5011324;28;20544;-67
2024/03/06 02:37:08;;;;;;;1248.37;999.90;;;5.20;99.90;;;;;;5013522;28;20479;-67
2024/03/06 02:39:36;;;;;;;1206.60;999.90;;;5.20;99.90;;;;;;5013014;28;20452;-67
2024/03/06 02:42:04;;;;;;;1190.07;999.90;;;5.20;99.90;;;;;;5013097;28;20460;-67
2024/03/06 02:44:31;;;;;;;1202.27;999.90;;;5.10;99.90;;;;;;5012541;28;20481;-66
2024/03/06 02:46:57;;;;;;;1199.00;999.90;;;5.10;99.90;;;;;;5012989;28;21006;-67
2024/03/06 02:49:24;;;;;;;1188.67;999.90;;;5.00;99.90;;;;;;5005162;28;20468;-67
2024/03/06 02:51:51;;;;;;;1183.73;999.90;;;4.90;99.90;;;;;;4993380;28;20481;-67
2024/03/06 02:54:19;;;;;;;1190.57;999.90;;;4.90;99.90;;;;;;4993048;28;20484;-67
2024/03/06 02:56:47;;;;;;;1207.73;999.90;;;4.80;99.90;;;;;;5011765;28;20960;-67
2024/03/06 02:59:14;;;;;;;1194.97;999.90;;;4.80;99.90;;;;;;5012252;28;20467;-67
2024/03/06 03:01:40;;;;;;;1210.50;999.90;;;4.80;99.90;;;;;;5012795;28;20489;-67
2024/03/06 03:04:07;;;;;;;1195.97;999.90;;;4.70;99.90;;;;;;5007305;28;20488;-67
2024/03/06 03:06:34;;;;;;;1205.90;999.90;;;4.70;99.90;;;;;;5009978;28;20488;-67
2024/03/06 03:09:01;;;;;;;1200.73;999.90;;;4.80;99.90;;;;;;4999992;28;20544;-67
2024/03/06 03:11:28;;;;;;;1174.90;999.90;;;5.00;99.90;;;;;;5001219;28;20449;-66
2024/03/06 03:13:56;;;;;;;1184.97;999.90;;;5.00;99.90;;;;;;5012330;28;20481;-67
2024/03/06 03:16:23;;;;;;;1196.63;999.90;;;5.00;99.90;;;;;;5004467;28;20458;-67
2024/03/06 03:18:50;;;;;;;1187.10;999.90;;;4.90;99.90;;;;;;5012217;28;20452;-67
2024/03/06 03:21:17;;;;;;;1178.63;999.90;;;4.90;99.90;;;;;;5012530;28;20476;-67
2024/03/06 03:23:44;;;;;;;1189.67;999.90;;;5.00;99.90;;;;;;5012584;28;20483;-67
2024/03/06 03:26:11;;;;;;;1189.10;999.90;;;5.00;99.90;;;;;;5006125;28;20454;-67
2024/03/06 03:28:40;;;;;;;1197.90;999.90;;;5.10;99.90;;;;;;4994021;28;20465;-67
2024/03/06 03:31:08;;;;;;;1226.27;999.90;;;5.10;99.90;;;;;;5012436;28;20846;-67
2024/03/06 03:33:38;;;;;;;1283.97;999.90;;;5.20;99.90;;;;;;5012296;28;20472;-67
2024/03/06 03:36:06;;;;;;;1234.30;999.90;;;5.20;99.90;;;;;;5011928;28;20949;-68
2024/03/06 03:38:35;;;;;;;1256.03;999.90;;;5.20;99.90;;;;;;5012101;28;20449;-67
2024/03/06 03:41:03;;;;;;;1191.27;999.90;;;5.20;99.90;;;;;;5011839;28;20503;-67
2024/03/06 03:43:30;;;;;;;1170.73;999.90;;;5.10;99.90;;;;;;5012197;28;20479;-67
2024/03/06 03:45:57;;;;;;;1185.03;999.90;;;5.10;99.90;;;;;;5012058;28;20461;-67
2024/03/06 03:48:25;;;;;;;1181.37;999.90;;;5.10;99.90;;;;;;5012238;28;20465;-66
2024/03/06 03:50:52;;;;;;;1174.90;999.90;;;5.20;99.90;;;;;;4992419;28;20453;-67
2024/03/06 03:53:19;;;;;;;1180.80;999.90;;;5.00;99.90;;;;;;4992220;28;20478;-66
2024/03/06 03:55:45;;;;;;;1174.00;999.90;;;5.00;99.90;;;;;;5002614;28;20949;-67
2024/03/06 03:58:12;;;;;;;1176.70;999.90;;;4.90;99.90;;;;;;5011813;28;20461;-67
2024/03/06 04:00:39;;;;;;;1175.83;999.90;;;4.90;99.90;;;;;;5010417;28;20489;-67
2024/03/06 04:03:06;;;;;;;1181.93;999.90;;;4.90;99.90;;;;;;4992268;28;21011;-67
2024/03/06 04:05:35;;;;;;;1174.93;999.90;;;5.00;99.90;;;;;;5009082;28;20456;-67
2024/03/06 04:08:02;;;;;;;1192.80;999.90;;;4.90;99.90;;;;;;5011989;28;20449;-67
2024/03/06 04:10:29;;;;;;;1189.80;999.90;;;5.00;99.90;;;;;;5012282;28;20480;-67
2024/03/06 04:12:56;;;;;;;1189.13;999.90;;;5.00;99.90;;;;;;5012295;28;20473;-67
2024/03/06 04:15:22;;;;;;;1191.47;999.90;;;5.10;99.90;;;;;;5012311;28;20453;-67
2024/03/06 04:17:49;;;;;;;1184.53;999.90;;;5.10;99.90;;;;;;5011893;28;20452;-67
2024/03/06 04:20:16;;;;;;;1177.30;999.90;;;5.10;99.90;;;;;;5011818;28;20457;-67
2024/03/06 04:22:46;;;;;;;1200.13;999.90;;;5.10;99.90;;;;;;5003641;28;20485;-67
2024/03/06 04:25:13;;;;;;;1189.33;999.90;;;5.10;99.90;;;;;;5011815;28;20968;-67
2024/03/06 04:27:39;;;;;;;1197.40;999.90;;;5.20;99.90;;;;;;5012298;28;20765;-67
2024/03/06 04:30:07;;;;;;;1182.70;999.90;;;5.20;99.90;;;;;;5011784;28;20457;-67
2024/03/06 04:32:34;;;;;;;1173.47;999.90;;;5.30;99.90;;;;;;5002798;28;20557;-67
2024/03/06 04:35:01;;;;;;;1182.73;999.90;;;5.30;99.90;;;;;;4991811;28;20462;-67
2024/03/06 04:37:29;;;;;;;1164.93;999.90;;;5.40;99.90;;;;;;4992104;28;20469;-67
2024/03/06 04:39:57;;;;;;;1190.30;999.90;;;5.40;99.90;;;;;;4996164;28;20489;-68
2024/03/06 04:42:24;;;;;;;1178.47;999.90;;;5.40;99.90;;;;;;5011626;28;20564;-68
2024/03/06 04:44:51;;;;;;;1171.30;999.90;;;5.40;99.90;;;;;;4991852;28;20460;-67
2024/03/06 04:47:19;;;;;;;1147.77;999.90;;;5.40;99.90;;;;;;4992018;28;20953;-67
2024/03/06 04:49:46;;;;;;;1146.53;999.90;;;5.40;99.90;;;;;;5004044;28;20457;-67
2024/03/06 04:52:13;;;;;;;1149.47;999.90;;;5.50;99.90;;;;;;5014991;28;20983;-67
2024/03/06 04:54:39;;;;;;;1163.40;999.90;;;5.50;99.90;;;;;;5006685;28;20462;-67
2024/03/06 04:57:08;;;;;;;1148.63;999.90;;;5.50;99.90;;;;;;5015572;28;20454;-67
2024/03/06 04:59:34;;;;;;;1141.93;999.90;;;5.50;99.90;;;;;;5014845;28;20961;-68
2024/03/06 05:02:03;;;;;;;1140.50;999.90;;;5.40;99.90;;;;;;5002036;28;20482;-66
2024/03/06 05:04:29;;;;;;;1128.50;999.90;;;5.40;99.90;;;;;;5003290;28;20512;-68
2024/03/06 05:06:56;;;;;;;1145.60;999.90;;;5.40;99.90;;;;;;5010908;28;20468;-67
2024/03/06 05:09:23;;;;;;;1145.00;999.90;;;5.40;99.90;;;;;;5010973;28;20945;-68
2024/03/06 05:11:50;;;;;;;1155.90;999.90;;;5.40;99.90;;;;;;5014760;28;20460;-67
2024/03/06 05:14:19;;;;;;;1118.90;999.90;;;5.40;99.90;;;;;;5007863;28;20973;-67
2024/03/06 05:16:45;;;;;;;1121.73;999.90;;;5.40;99.90;;;;;;5013276;28;20460;-68
2024/03/06 05:19:12;;;;;;;1120.37;999.90;;;5.40;99.90;;;;;;5014908;28;20457;-67
2024/03/06 05:21:39;;;;;;;1124.10;999.90;;;5.40;99.90;;;;;;5014664;28;20862;-68
2024/03/06 05:24:06;;;;;;;1111.40;996.30;;;5.30;99.90;;;;;;5014310;28;20980;-67
2024/03/06 05:26:33;;;;;;;1100.70;988.27;;;5.30;99.90;;;;;;4997391;28;20458;-67
2024/03/06 05:28:59;;;;;;;1126.27;999.90;;;5.20;99.90;;;;;;5007494;28;20953;-67
2024/03/06 05:31:28;;;;;;;1132.80;999.90;;;5.20;99.90;;;;;;5005833;28;20468;-68
2024/03/06 05:33:54;;;;;;;1151.37;999.90;;;5.20;99.90;;;;;;5001649;28;20477;-67
2024/03/06 05:36:21;;;;;;;1126.83;999.90;;;5.20;99.90;;;;;;4993733;28;20476;-67
2024/03/06 05:38:48;;;;;;;1117.63;999.90;;;5.10;99.90;;;;;;4994630;28;20458;-67
2024/03/06 05:41:17;;;;;;;1140.50;999.90;;;5.00;99.90;;;;;;4994565;28;20488;-66
2024/03/06 05:43:44;;;;;;;1105.87;992.87;;;4.90;99.90;;;;;;5004630;28;20477;-67
2024/03/06 05:46:11;;;;;;;1102.70;987.67;;;4.80;99.90;;;;;;5013983;28;20453;-67
2024/03/06 05:48:39;;;;;;;1108.83;993.87;;;4.70;99.90;;;;;;5012544;28;20543;-67
2024/03/06 05:51:07;;;;;;;1123.73;999.90;;;4.60;99.90;;;;;;4994534;28;20492;-67
2024/03/06 05:53:37;;;;;;;1116.90;999.90;;;4.50;99.90;;;;;;5010495;28;20469;-67
2024/03/06 05:56:06;;;;;;;1146.20;999.90;;;4.40;99.90;;;;;;4999187;28;20453;-67
2024/03/06 05:58:34;;;;;;;1147.20;999.90;;;4.40;99.90;;;;;;5013907;28;20522;-68
2024/03/06 06:01:01;;;;;;;1158.90;999.90;;;4.40;99.90;;;;;;5013070;28;20480;-67
2024/03/06 06:03:28;;;;;;;1160.43;999.90;;;4.30;99.90;;;;;;5013591;28;20973;-65
2024/03/06 06:05:56;;;;;;;1151.73;999.90;;;4.10;99.90;;;;;;5013358;28;21020;-67
2024/03/06 06:08:24;;;;;;;1160.50;999.90;;;4.00;99.90;;;;;;5013560;28;20463;-67
2024/03/06 06:10:52;;;;;;;1150.37;999.90;;;3.90;99.90;;;;;;5013350;28;20857;-67
2024/03/06 06:13:19;;;;;;;1161.03;999.90;;;3.80;99.90;;;;;;5013515;28;20500;-67
2024/03/06 06:15:46;;;;;;;1159.13;999.90;;;3.80;99.90;;;;;;5010811;28;20540;-67
2024/03/06 06:18:12;;;;;;;1159.83;999.90;;;3.70;99.90;;;;;;4993868;28;20457;-67
2024/03/06 06:20:41;;;;;;;1158.90;999.90;;;3.60;99.90;;;;;;5003442;28;20500;-67
2024/03/06 06:23:09;;;;;;;1148.73;999.90;;;3.60;99.90;;;;;;5013681;28;20560;-67
2024/03/06 06:25:36;;;;;;;1142.93;999.90;;;3.60;99.90;;;;;;4995671;28;20883;-67
2024/03/06 06:28:03;;;;;;;1160.07;999.90;;;3.60;99.90;;;;;;5000553;28;20461;-66
2024/03/06 06:30:30;;;;;;;1168.00;999.90;;;3.70;99.90;;;;;;5005106;28;20453;-67
2024/03/06 06:32:57;;;;;;;1143.53;999.90;;;3.70;99.90;;;;;;5013340;28;20477;-67
2024/03/06 06:35:25;;;;;;;1143.93;999.90;;;3.70;99.90;;;;;;5013420;28;20457;-67
2024/03/06 06:37:51;;;;;;;1136.20;999.90;;;3.70;99.90;;;;;;5013606;28;20485;-67
2024/03/06 06:40:20;;;;;;;1140.00;999.90;;;3.70;99.90;;;;;;5006374;28;20501;-67
2024/03/06 06:42:49;;;;;;;1129.07;999.90;;;3.70;99.90;;;;;;4996307;28;20536;-67
2024/03/06 06:45:16;;;;;;;1140.03;999.90;;;3.80;99.90;;;;;;5012807;28;20485;-67
2024/03/06 06:47:43;;;;;;;1142.27;999.90;;;3.80;99.90;;;;;;5013042;28;20453;-69
2024/03/06 06:50:11;;;;;;;1161.83;999.90;;;3.90;99.90;;;;;;5012562;28;20833;-67
2024/03/06 06:52:38;;;;;;;1167.17;999.90;;;3.90;99.90;;;;;;5012574;28;20472;-67
2024/03/06 06:55:05;;;;;;;1167.83;999.90;;;3.90;99.90;;;;;;5012765;28;20452;-67
2024/03/06 06:57:34;;;;;;;1168.27;999.90;;;3.90;99.90;;;;;;5011883;28;20455;-67
2024/03/06 07:00:03;;;;;;;1162.60;999.90;;;3.90;99.90;;;;;;4993212;28;20874;-67
2024/03/06 07:02:30;;;;;;;1155.13;999.90;;;3.90;99.90;;;;;;4992752;28;20509;-67
2024/03/06 07:04:57;;;;;;;1157.77;999.90;;;4.00;99.90;;;;;;4992576;28;20553;-67
2024/03/06 07:07:23;;;;;;;1167.00;999.90;;;3.90;99.90;;;;;;4993202;28;20458;-67
2024/03/06 07:09:50;;;;;;;1159.20;999.90;;;3.90;99.90;;;;;;5004154;28;20453;-67
2024/03/06 07:12:17;;;;;;;1171.87;999.90;;;3.90;99.90;;;;;;5012780;28;20451;-68
2024/03/06 07:14:45;;;;;;;1155.83;999.90;;;4.00;99.90;;;;;;5012391;28;20471;-67
2024/03/06 07:17:12;;;;;;;1158.27;999.90;;;4.00;99.90;;;;;;5012588;28;20452;-67
2024/03/06 07:19:39;;;;;;;1139.47;999.90;;;4.10;99.90;;;;;;5010660;28;20453;-67
2024/03/06 07:22:06;;;;;;;1138.30;999.90;;;4.20;99.90;;;;;;4992741;28;20484;-71
2024/03/06 07:24:32;;;;;;;1125.13;999.90;;;4.30;99.90;;;;;;4992391;28;20997;-67
2024/03/06 07:27:01;;;;;;;1127.30;999.90;;;4.40;99.90;;;;;;4997275;28;20810;-67
2024/03/06 07:29:28;;;;;;;1125.47;999.90;;;4.50;99.90;;;;;;5012349;28;20463;-66
2024/03/06 07:31:56;;;;;;;1111.23;997.23;;;4.60;99.90;;;;;;5012252;28;20453;-67
2024/03/06 07:34:23;;;;;;;1144.03;999.90;;;4.70;99.90;;;;;;5004532;28;20489;-67
2024/03/06 07:36:50;;;;;;;1131.33;999.90;;;4.80;99.90;;;;;;4992896;28;20461;-67
2024/03/06 07:39:18;;;;;;;1136.00;999.90;;;4.90;99.90;;;;;;4999748;28;20851;-68
2024/03/06 07:41:44;;;;;;;1108.37;996.83;;;5.00;99.90;;;;;;5001695;28;20569;-67
2024/03/06 07:44:11;;;;;;;1108.50;995.80;;;5.00;99.90;;;;;;5006740;28;20931;-67
2024/03/06 07:46:38;;;;;;;1090.40;978.30;;;5.10;99.90;;;;;;5009873;28;20457;-67
2024/03/06 07:49:06;;;;;;;1097.30;985.50;;;5.20;99.90;;;;;;5011727;28;20457;-67
2024/03/06 07:51:33;;;;;;;1103.43;988.93;;;5.30;99.90;;;;;;5010886;28;21156;-67
2024/03/06 07:54:01;;;;;;;1108.73;993.33;;;5.30;99.90;;;;;;4991804;28;20477;-67
2024/03/06 07:56:28;;;;;;;1112.93;998.37;;;5.30;99.90;;;;;;4991639;28;20458;-68
2024/03/06 07:58:55;;;;;;;1107.50;990.43;;;5.30;99.90;;;;;;5004197;28;20465;-68
2024/03/06 08:01:22;;;;;;;1099.47;983.33;;;5.30;99.90;;;;;;5011270;28;20844;-67
2024/03/06 08:03:49;;;;;;;1112.00;999.10;;;5.30;99.90;;;;;;5011319;28;20483;-67
2024/03/06 08:06:17;;;;;;;1109.87;997.07;;;5.50;99.90;;;;;;5011276;28;20457;-67
2024/03/06 08:08:45;;;;;;;1109.13;997.50;;;5.80;99.90;;;;;;5001466;28;20453;-67
2024/03/06 08:11:11;;;;;;;1104.27;995.27;;;6.00;99.90;;;;;;4997912;28;20468;-67
2024/03/06 08:13:38;;;;;;;1109.30;999.60;;;6.20;99.90;;;;;;5012101;28;20469;-71
2024/03/06 08:16:06;;;;;;;1102.10;992.63;;;6.50;99.90;;;;;;5016887;28;20465;-71
2024/03/06 08:18:34;;;;;;;1111.13;999.90;;;6.70;99.90;;;;;;5011654;28;20453;-67
2024/03/06 08:21:01;;;;;;;1118.53;999.90;;;7.00;99.90;;;;;;5007485;28;20467;-67
2024/03/06 08:23:30;;;;;;;1102.67;995.43;;;7.30;99.90;;;;;;4992313;28;20880;-67
2024/03/06 08:25:57;;;;;;;1110.40;999.90;;;7.30;99.90;;;;;;5014880;28;20488;-68
2024/03/06 08:28:24;;;;;;;1115.60;999.90;;;7.30;99.90;;;;;;5015575;28;20452;-68
2024/03/06 08:30:52;;;;;;;1110.37;999.90;;;7.60;99.90;;;;;;5015776;28;20452;-68
2024/03/06 08:33:20;;;;;;;1096.83;998.00;;;7.90;99.90;;;;;;5015542;28;20473;-68
2024/03/06 08:35:47;;;;;;;1102.50;999.90;;;8.00;99.90;;;;;;5015272;28;20492;-68
2024/03/06 08:38:14;;;;;;;1084.17;990.83;;;8.20;99.90;;;;;;5015359;28;20457;-67
2024/03/06 08:40:45;;;;;;;1049.67;961.50;;;8.30;99.90;;;;;;5005303;28;20464;-68
2024/03/06 08:43:12;;;;;;;1055.30;966.67;;;8.50;99.90;;;;;;5001596;28;20497;-68
2024/03/06 08:45:39;;;;;;;999.03;915.03;;;8.60;99.90;;;;;;5014871;28;20956;-68
2024/03/06 08:48:06;;;;;;;961.13;881.13;;;8.90;99.90;;;;;;5014339;28;20940;-67
2024/03/06 08:50:33;;;;;;;868.73;800.07;;;9.00;99.90;;;;;;5012015;28;20466;-67
2024/03/06 08:53:01;;;;;;;844.47;778.03;;;8.90;99.90;;;;;;5019028;28;20763;-68
2024/03/06 08:55:29;;;;;;;828.93;770.57;;;9.00;99.90;;;;;;5014139;28;20449;-68
2024/03/06 08:57:57;;;;;;;829.63;771.03;;;8.80;99.90;;;;;;5013816;28;20464;-68
2024/03/06 09:00:26;;;;;;;813.40;761.00;;;8.80;99.90;;;;;;5009740;28;20453;-68
2024/03/06 09:02:53;;;;;;;801.97;753.73;;;8.80;99.90;;;;;;5006691;28;20579;-68
2024/03/06 09:05:21;;;;;;;774.57;731.30;;;8.90;99.90;;;;;;5005812;28;20452;-68
2024/03/06 09:07:48;;;;;;;688.63;656.93;;;8.90;99.90;;;;;;5014616;28;20938;-68
2024/03/06 09:10:15;;;;;;;368.45;354.90;;;9.10;99.90;;;;;;5013910;28;20935;-67
2024/03/06 09:12:42;;;;;;;101.40;96.07;;;9.50;99.90;;;;;;5014926;28;20214;-67
2024/03/06 09:15:11;;;;;;;67.00;62.97;;;9.70;99.90;;;;;;5013894;28;20461;-68
2024/03/06 09:17:38;;;;;;;63.10;59.37;;;9.80;99.90;;;;;;5005286;28;20457;-68
2024/03/06 09:20:09;;;;;;;51.83;48.03;;;10.00;99.90;;;;;;4994900;28;20464;-66
2024/03/06 09:22:37;;;;;;;32.43;29.63;;;10.40;99.90;;;;;;5011955;28;20484;-64
2024/03/06 09:25:04;;;;;;;25.00;16.73;;;10.80;99.90;;;;;;5001400;28;20466;-66
2024/03/06 09:27:31;;;;;;;24.83;16.33;;;11.00;99.90;;;;;;4995188;28;20856;-65
2024/03/06 09:29:58;;;;;;;19.40;16.13;;;11.00;99.90;;;;;;5007226;28;20467;-66
2024/03/06 09:32:27;;;;;;;23.03;14.90;;;11.50;99.90;;;;;;5014578;28;20543;-66
2024/03/06 09:34:54;;;;;;;28.17;17.73;;;11.50;99.90;;;;;;5013890;28;20448;-65
2024/03/06 09:37:21;;;;;;;29.83;20.10;;;11.60;99.90;;;;;;5014478;28;20453;-66
2024/03/06 09:39:47;;;;;;;27.03;17.73;;;11.80;99.90;;;;;;5014473;28;20449;-65
2024/03/06 09:42:15;;;;;;;23.87;16.53;;;11.60;98.30;;;;;;5014082;28;20488;-66
2024/03/06 09:44:42;;;;;;;26.63;18.47;;;11.90;99.20;;;;;;5013537;28;20468;-66
2024/03/06 09:47:14;;;;;;;25.87;17.33;;;11.90;98.20;;;;;;5014141;28;20452;-66
2024/03/06 09:49:42;;;;;;;27.47;20.13;;;12.40;95.20;;;;;;5003964;28;20469;-66
2024/03/06 09:52:10;;;;;;;31.50;20.27;;;13.00;96.30;;;;;;5008208;28;20477;-65
2024/03/06 09:54:38;;;;;;;31.17;19.43;;;13.70;92.50;;;;;;5013557;28;20495;-66
2024/03/06 09:57:05;;;;;;;30.07;18.90;;;13.40;87.80;;;;;;5013932;28;20475;-66
2024/03/06 09:59:32;;;;;;;31.33;19.20;;;13.70;87.80;;;;;;5013754;28;20465;-66
2024/03/06 10:02:02;;;;;;;30.90;19.50;;;13.40;80.00;;;;;;5013674;28;20461;-65
2024/03/06 10:04:29;;;;;;;26.87;18.80;;;13.60;74.20;;;;;;5004963;28;21048;-65
2024/03/06 10:06:59;;;;;;;35.10;19.90;;;14.00;64.70;;;;;;4994239;28;20897;-65
2024/03/06 10:09:27;;;;;;;30.33;19.33;;;14.10;64.80;;;;;;5002076;28;20461;-66
2024/03/06 10:11:56;;;;;;;32.33;20.20;;;14.20;64.80;;;;;;5005667;28;20979;-66
2024/03/06 10:14:24;;;;;;;27.43;18.20;;;14.10;64.80;;;;;;5013312;28;20902;-66
2024/03/06 10:16:56;;;;;;;29.73;20.37;;;14.40;65.00;;;;;;5005409;28;20461;-66
2024/03/06 10:19:23;;;;;;;31.43;19.20;;;14.30;64.90;;;;;;5013941;28;20506;-65
2024/03/06 10:21:51;;;;;;;29.20;18.77;;;13.90;56.30;;;;;;5013603;28;20987;-65
2024/03/06 10:24:21;;;;;;;27.83;18.77;;;14.30;64.90;;;;;;5006500;28;20485;-66
2024/03/06 10:26:48;;;;;;;26.63;18.40;;;14.70;59.80;;;;;;4993708;28;20458;-65
2024/03/06 10:29:18;;;;;;;26.20;18.17;;;15.10;48.70;;;;;;4993847;28;20458;-65
2024/03/06 10:31:52;;;;;;;29.27;19.80;;;15.60;49.10;;;;;;5004170;28;20952;-65
2024/03/06 10:34:20;;;;;;;26.97;19.40;;;14.80;48.40;;;;;;5006619;28;20469;-65
2024/03/06 10:36:49;;;;;;;31.37;22.23;;;15.70;49.20;;;;;;5012408;28;20468;-65
2024/03/06 10:39:19;;;;;;;31.90;22.67;;;15.90;48.50;;;;;;5006938;28;20895;-65
2024/03/06 10:41:51;;;;;;;27.47;19.87;;;15.50;48.80;;;;;;4995936;28;20852;-66
2024/03/06 10:44:22;;;;;;;38.63;26.33;;;15.60;49.10;;;;;;5013948;28;20493;-65
2024/03/06 10:46:59;;;;;;;36.47;24.00;;;15.50;49.00;;;;;;5007977;28;20458;-69
2024/03/06 10:49:27;;;;;;;31.40;20.10;;;16.00;40.70;;;;;;5012974;28;20480;-66
2024/03/06 10:51:58;;;;;;;28.97;20.97;;;16.30;32.20;;;;;;5004563;28;20456;-67
2024/03/06 10:54:28;;;;;;;39.53;27.10;;;16.90;32.40;;;;;;5012539;28;20495;-65
2024/03/06 10:56:56;;;;;;;42.13;29.20;;;16.90;32.40;;;;;;5003674;28;20499;-67
2024/03/06 10:59:28;;;;;;;42.10;29.40;;;16.70;33.10;;;;;;5008530;28;20467;-67
2024/03/06 11:01:55;;;;;;;39.37;26.30;;;16.40;31.80;;;;;;5012635;28;20449;-67
2024/03/06 11:04:23;;;;;;;41.03;25.50;;;15.60;31.20;;;;;;5012301;28;20871;-67
2024/03/06 11:06:50;;;;;;;39.50;27.00;;;15.70;39.60;;;;;;5012514;28;20548;-67
2024/03/06 11:09:17;;;;;;;37.33;28.97;;;15.30;39.20;;;;;;5007316;28;20449;-65
2024/03/06 11:11:52;;;;;;;40.93;30.00;;;14.70;30.60;;;;;;5005765;28;20464;-67
2024/03/06 11:14:22;;;;;;;41.97;30.73;;;14.30;43.40;;;;;;5007146;28;20476;-67
2024/03/06 11:17:04;;;;;;;45.20;32.10;;;13.80;47.40;;;;;;5006905;28;20450;-64
2024/03/06 11:19:31;;;;;;;45.00;32.77;;;13.50;47.10;;;;;;5005525;28;20449;-67
2024/03/06 11:21:59;;;;;;;45.83;33.37;;;13.30;47.00;;;;;;5007593;28;20563;-66
2024/03/06 11:24:33;;;;;;;49.27;33.00;;;14.10;56.40;;;;;;5003661;28;20988;-66
2024/03/06 11:27:01;;;;;;;40.60;30.90;;;14.90;48.30;;;;;;5007752;28;20872;-67
2024/03/06 11:29:31;;;;;;;35.07;26.30;;;14.60;48.10;;;;;;5008746;28;20488;-66
2024/03/06 11:32:07;;;;;;;39.37;28.30;;;14.70;47.30;;;;;;5008680;28;20461;-66
2024/03/06 11:34:35;;;;;;;36.07;25.27;;;15.00;39.70;;;;;;5009211;28;20836;-66
2024/03/06 11:37:06;;;;;;;45.00;29.90;;;15.90;31.40;;;;;;4999662;28;20464;-67
2024/03/06 11:39:36;;;;;;;46.47;31.03;;;16.20;31.80;;;;;;4992685;28;20454;-66
2024/03/06 11:42:04;;;;;;;42.70;30.37;;;16.70;32.20;;;;;;4993496;28;20449;-66
2024/03/06 11:44:33;;;;;;;42.67;28.77;;;16.20;31.80;;;;;;5000179;28;20524;-66
2024/03/06 11:47:01;;;;;;;38.27;26.83;;;15.80;31.40;;;;;;5010222;28;20540;-66
2024/03/06 11:49:31;;;;;;;41.60;28.03;;;15.50;31.10;;;;;;5008911;28;20449;-65
2024/03/06 11:52:00;;;;;;;41.60;28.33;;;16.00;31.50;;;;;;5004900;28;20448;-65
2024/03/06 11:54:28;;;;;;;41.07;29.13;;;15.80;31.40;;;;;;5003503;28;20480;-66
2024/03/06 11:56:56;;;;;;;38.07;27.70;;;16.30;31.90;;;;;;4992476;28;20454;-66
2024/03/06 11:59:24;;;;;;;37.20;27.77;;;16.70;26.90;;;;;;4992878;28;20468;-65
2024/03/06 12:01:53;;;;;;;38.80;27.50;;;17.30;25.10;;;;;;4996589;28;20834;-65
2024/03/06 12:04:21;;;;;;;38.07;25.00;;;17.90;18.20;;;;;;5011321;28;20489;-65
2024/03/06 12:06:49;;;;;;;42.10;32.00;;;17.40;10.40;;;;;;5005390;28;20461;-66
2024/03/06 12:09:16;;;;;;;41.77;30.13;;;17.60;18.00;;;;;;4996120;28;20460;-66
2024/03/06 12:11:44;;;;;;;39.13;27.37;;;17.80;18.10;;;;;;4996044;28;20458;-66
2024/03/06 12:14:16;;;;;;;38.57;23.50;;;18.70;11.40;;;;;;4996203;28;20469;-66
2024/03/06 12:16:43;;;;;;;40.90;27.90;;;17.50;6.50;;;;;;4995983;28;20469;-65